createdAt,value
2023-01-11T00:04:02.608Z,85.05
2023-01-11T00:09:09.736Z,85.14
2023-01-11T00:14:17.279Z,85.20
2023-01-11T00:19:24.690Z,85.06
2023-01-11T00:24:31.893Z,84.99
2023-01-11T00:29:39.090Z,84.96
2023-01-11T00:34:46.217Z,84.82
2023-01-11T00:39:53.653Z,84.85
2023-01-11T00:45:18.517Z,84.98
2023-01-11T00:50:27.484Z,84.93
2023-01-11T00:55:35.243Z,84.81
2023-01-11T01:00:42.528Z,84.83
2023-01-11T01:05:49.654Z,84.85
2023-01-11T01:10:56.808Z,84.87
2023-01-11T01:16:04.280Z,84.81
2023-01-11T01:21:11.364Z,84.80
2023-01-11T01:26:18.469Z,84.81
2023-01-11T01:31:25.851Z,84.81
2023-01-11T01:36:33.138Z,84.85
2023-01-11T01:41:40.989Z,84.76
2023-01-11T01:46:48.121Z,84.85
2023-01-11T01:51:59.067Z,85.06
2023-01-11T01:57:11.491Z,85.07
2023-01-11T02:02:18.996Z,85.01
2023-01-11T02:07:32.276Z,85.07
2023-01-11T02:12:43.217Z,84.92
2023-01-11T02:17:50.459Z,85.03
2023-01-11T02:23:31.556Z,84.99
2023-01-11T02:28:42.786Z,84.87
2023-01-11T02:33:58.067Z,85.10
2023-01-11T02:39:14.932Z,85.21
2023-01-11T02:44:45.289Z,85.00
2023-01-11T02:49:57.983Z,84.80
2023-01-11T02:55:07.937Z,84.95
2023-01-11T03:00:18.275Z,84.93
2023-01-11T03:05:25.726Z,84.88
2023-01-11T03:10:41.647Z,84.68
2023-01-11T03:16:18.398Z,84.80
2023-01-11T03:21:48.417Z,84.83
2023-01-11T03:27:10.297Z,84.76
2023-01-11T03:32:26.077Z,84.80
2023-01-11T03:37:39.318Z,84.64
2023-01-11T03:43:08.569Z,84.68
2023-01-11T03:48:19.545Z,84.69
2023-01-11T03:53:30.844Z,84.57
2023-01-11T03:58:38.290Z,84.80
2023-01-11T04:03:45.696Z,84.79
2023-01-11T04:08:52.944Z,84.72
2023-01-11T04:14:01.117Z,84.76
2023-01-11T04:19:08.268Z,84.81
2023-01-11T04:24:18.670Z,84.68
2023-01-11T04:29:25.894Z,84.74
2023-01-11T04:34:33.056Z,84.66
2023-01-11T04:39:40.306Z,84.69
2023-01-11T04:44:48.224Z,84.61
2023-01-11T04:49:54.147Z,84.67
2023-01-11T04:55:01.297Z,84.79
2023-01-11T05:00:11.244Z,84.83
2023-01-11T05:05:18.553Z,84.83
2023-01-11T05:10:25.794Z,84.71
2023-01-11T05:15:32.959Z,84.83
2023-01-11T05:20:40.287Z,84.74
2023-01-11T05:25:48.777Z,84.79
2023-01-11T05:30:56.245Z,84.64
2023-01-11T05:36:06.059Z,84.77
2023-01-11T05:41:13.739Z,84.74
2023-01-11T05:46:21.216Z,84.83
2023-01-11T05:51:30.742Z,84.89
2023-01-11T05:56:38.085Z,84.77
2023-01-11T06:01:45.885Z,84.65
2023-01-11T06:06:53.314Z,84.69
2023-01-11T06:12:00.603Z,84.85
2023-01-11T06:17:07.814Z,84.88
2023-01-11T06:22:14.929Z,84.82
2023-01-11T06:27:22.236Z,84.85
2023-01-11T06:32:30.280Z,84.88
2023-01-11T06:37:35.916Z,84.85
2023-01-11T06:42:43.156Z,84.93
2023-01-11T06:47:50.658Z,84.94
2023-01-11T06:52:58.886Z,84.86
2023-01-11T06:58:06.225Z,84.91
2023-01-11T07:03:14.931Z,84.88
2023-01-11T07:08:22.552Z,84.86
2023-01-11T07:13:29.790Z,84.95
2023-01-11T07:18:37.575Z,84.89
2023-01-11T07:23:44.786Z,84.94
2023-01-11T07:28:51.975Z,84.87
2023-01-11T07:33:59.079Z,85.01
2023-01-11T07:39:10.504Z,84.90
2023-01-11T07:44:17.905Z,84.84
2023-01-11T07:49:25.103Z,84.64
2023-01-11T07:54:32.820Z,84.44
2023-01-11T07:59:40.067Z,84.39
2023-01-11T08:04:48.523Z,84.40
2023-01-11T08:09:55.753Z,84.21
2023-01-11T08:15:03.405Z,83.92
2023-01-11T08:20:13.781Z,84.07
2023-01-11T08:25:21.555Z,83.98
2023-01-11T08:30:29.476Z,83.87
2023-01-11T08:35:40.622Z,83.95
2023-01-11T08:40:49.153Z,83.94
2023-01-11T08:45:56.380Z,83.92
2023-01-11T08:51:03.750Z,83.67
2023-01-11T08:56:11.643Z,83.62
2023-01-11T09:01:19.013Z,83.71
2023-01-11T09:06:26.420Z,83.63
2023-01-11T09:11:51.534Z,83.45
2023-01-11T09:17:00.281Z,83.30
2023-01-11T09:22:07.681Z,83.14
2023-01-11T09:27:15.127Z,83.09
2023-01-11T09:32:22.767Z,82.95
2023-01-11T09:37:30.017Z,82.96
2023-01-11T09:42:40.829Z,82.62
2023-01-11T09:47:53.337Z,82.70
2023-01-11T09:53:04.901Z,82.77
2023-01-11T09:58:36.189Z,82.60
2023-01-11T10:04:22.069Z,82.33
2023-01-11T10:18:41.726Z,82.34
2023-01-11T10:20:47.915Z,82.19
2023-01-11T10:26:02.053Z,82.10
2023-01-11T10:31:30.113Z,82.03
2023-01-11T10:37:05.026Z,81.91
2023-01-11T10:42:20.040Z,81.80
2023-01-11T10:47:33.027Z,81.66
2023-01-11T10:52:44.562Z,81.56
2023-01-11T10:58:07.087Z,81.23
2023-01-11T11:03:31.868Z,81.31
2023-01-11T11:08:48.491Z,81.32
2023-01-11T11:14:03.468Z,81.21
2023-01-11T11:19:16.418Z,80.91
2023-01-11T11:24:32.622Z,80.86
2023-01-11T11:29:51.116Z,80.92
2023-01-11T11:34:59.044Z,80.91
2023-01-11T11:40:05.293Z,80.76
2023-01-11T11:45:20.122Z,80.65
2023-01-11T11:50:44.206Z,80.62
2023-01-11T11:55:54.915Z,80.40
2023-01-11T12:01:07.065Z,80.41
2023-01-11T12:06:25.109Z,80.56
2023-01-11T12:11:35.571Z,80.23
2023-01-11T12:16:45.639Z,80.14
2023-01-11T12:21:54.306Z,80.17
2023-01-11T12:27:12.887Z,79.93
2023-01-11T12:32:47.134Z,79.99
2023-01-11T12:38:15.427Z,80.12
2023-01-11T12:43:38.911Z,79.88
2023-01-11T12:49:08.665Z,79.79
2023-01-11T12:54:38.971Z,79.76
2023-01-11T13:00:03.583Z,79.69
2023-01-11T13:05:23.690Z,79.69
2023-01-11T13:10:52.319Z,79.49
2023-01-11T13:16:00.228Z,79.46
2023-01-11T13:21:19.650Z,79.38
2023-01-11T13:26:30.761Z,79.62
2023-01-11T13:31:38.830Z,79.46
2023-01-11T13:36:47.104Z,79.43
2023-01-11T13:41:58.281Z,79.46
2023-01-11T13:47:11.468Z,79.37
2023-01-11T13:52:21.506Z,79.37
2023-01-11T13:57:35.552Z,79.24
2023-01-11T14:02:49.453Z,79.07
2023-01-11T14:08:13.449Z,78.99
2023-01-11T14:14:05.747Z,79.06
2023-01-11T14:19:23.740Z,79.02
2023-01-11T14:24:41.627Z,78.92
2023-01-11T14:30:14.895Z,78.98
2023-01-11T14:35:56.340Z,79.02
2023-01-11T14:41:21.936Z,78.99
2023-01-11T14:47:11.802Z,78.84
2023-01-11T14:52:31.143Z,78.82
2023-01-11T14:58:01.303Z,78.73
2023-01-11T15:03:47.022Z,78.76
2023-01-11T15:08:57.023Z,78.59
2023-01-11T15:14:23.718Z,78.61
2023-01-11T15:19:34.300Z,78.63
2023-01-11T15:24:45.339Z,78.63
2023-01-11T15:29:57.956Z,78.51
2023-01-11T15:35:37.475Z,78.61
2023-01-11T15:40:47.610Z,78.51
2023-01-11T15:46:58.919Z,78.47
2023-01-11T15:52:23.795Z,78.37
2023-01-11T15:58:06.221Z,78.46
2023-01-11T16:03:54.735Z,78.27
2023-01-11T16:09:13.869Z,78.48
2023-01-11T16:14:52.169Z,78.41
2023-01-11T16:20:19.968Z,78.41
2023-01-11T16:25:31.180Z,78.33
2023-01-11T16:30:39.853Z,78.28
2023-01-11T16:35:50.365Z,78.32
2023-01-11T16:40:59.410Z,78.32
2023-01-11T16:46:06.959Z,78.11
2023-01-11T16:51:17.165Z,78.16
2023-01-11T16:56:25.775Z,78.21
2023-01-11T17:01:51.553Z,78.16
2023-01-11T17:07:13.901Z,78.17
2023-01-11T17:12:24.309Z,78.07
2023-01-11T17:17:37.805Z,78.02
2023-01-11T17:22:47.028Z,78.07
2023-01-11T17:28:01.635Z,77.99
2023-01-11T17:33:26.245Z,77.95
2023-01-11T17:38:34.314Z,77.82
2023-01-11T17:43:59.105Z,77.95
2023-01-11T17:49:06.630Z,77.95
2023-01-11T17:54:22.362Z,77.88
2023-01-11T17:59:31.443Z,78.10
2023-01-11T18:04:38.868Z,78.25
2023-01-11T18:09:52.008Z,78.33
2023-01-11T18:15:01.222Z,78.42
2023-01-11T18:20:40.219Z,78.61
2023-01-11T18:25:48.129Z,78.83
2023-01-11T18:31:02.133Z,79.08
2023-01-11T18:36:22.035Z,79.01
2023-01-11T18:41:47.077Z,79.10
2023-01-11T18:46:54.485Z,79.43
2023-01-11T18:52:01.786Z,79.42
2023-01-11T18:57:09.442Z,79.57
2023-01-11T19:02:28.921Z,79.56
2023-01-11T19:07:36.343Z,79.77
2023-01-11T19:12:44.777Z,79.76
2023-01-11T19:17:52.107Z,79.77
2023-01-11T19:22:59.562Z,79.89
2023-01-11T19:28:07.269Z,79.86
2023-01-11T19:33:14.780Z,80.00
2023-01-11T19:39:21.379Z,79.99
2023-01-11T19:44:25.081Z,80.09
2023-01-11T19:49:32.768Z,80.26
2023-01-11T19:54:39.872Z,80.24
2023-01-11T19:59:47.828Z,80.23
2023-01-11T20:04:55.093Z,80.45
2023-01-11T20:10:02.405Z,80.52
2023-01-11T20:15:11.539Z,80.54
2023-01-11T20:20:19.380Z,80.60
2023-01-11T20:25:27.432Z,80.72
2023-01-11T20:30:34.463Z,80.60
2023-01-11T20:35:44.903Z,80.70
2023-01-11T20:40:52.048Z,80.80
2023-01-11T20:46:00.241Z,80.62
2023-01-11T20:51:10.590Z,80.74
2023-01-11T20:56:18.207Z,80.76
2023-01-11T21:01:26.475Z,80.88
2023-01-11T21:06:35.787Z,80.88
2023-01-11T21:11:44.247Z,80.92
2023-01-11T21:16:55.014Z,81.04
2023-01-11T21:22:07.590Z,81.09
2023-01-11T21:27:17.811Z,81.07
2023-01-11T21:32:25.953Z,81.06
2023-01-11T21:37:33.712Z,81.16
2023-01-11T21:42:40.820Z,81.31
2023-01-11T21:47:48.109Z,81.28
2023-01-11T21:52:57.593Z,81.36
2023-01-11T21:58:05.000Z,81.22
2023-01-11T22:03:14.725Z,81.33
2023-01-11T22:08:21.943Z,81.29
2023-01-11T22:13:29.226Z,81.45
2023-01-11T22:18:37.260Z,81.58
2023-01-11T22:23:43.043Z,81.44
2023-01-11T22:29:10.505Z,81.47
2023-01-11T22:34:18.664Z,81.47
2023-01-11T22:39:24.921Z,81.61
2023-01-11T22:44:32.194Z,81.60
2023-01-11T22:49:39.605Z,81.68
2023-01-11T22:54:46.719Z,81.81
2023-01-11T22:59:54.125Z,81.95
2023-01-11T23:05:01.321Z,81.97
2023-01-11T23:10:13.807Z,81.89
2023-01-11T23:15:21.269Z,81.88
2023-01-11T23:20:28.510Z,81.84
2023-01-11T23:25:35.827Z,81.92
2023-01-11T23:30:43.021Z,81.83
2023-01-11T23:35:57.935Z,81.93
2023-01-11T23:41:27.610Z,82.05
2023-01-11T23:46:52.419Z,82.15
2023-01-11T23:52:00.895Z,82.20
2023-01-11T23:57:09.404Z,82.21
